Time;durP1;ratioP1;P1;durP2;ratioP2;P2;SDS_P1;SDS_P2;PMS_P1;PMS_P2;Temp;Humidity;BMP_temperature;BMP_pressure;BME280_temperature;BME280_humidity;BME280_pressure;Samples;Min_cycle;Max_cycle;Signal;HPM_P1;HPM_P2
2022/04/16 00:00:06;;;;;;;299.20;284.63;;;9.40;99.90;;;;;;5095365;28;20557;-68
2022/04/16 00:02:32;;;;;;;387.40;369.20;;;9.40;99.90;;;;;;5060413;28;20234;-69
2022/04/16 00:04:57;;;;;;;356.73;340.20;;;9.40;99.90;;;;;;5059756;28;20197;-69
2022/04/16 00:07:24;;;;;;;400.77;381.97;;;9.30;99.90;;;;;;5059186;28;20242;-69
2022/04/16 00:09:49;;;;;;;513.13;488.13;;;9.40;99.90;;;;;;5095074;28;20181;-70
2022/04/16 00:12:15;;;;;;;568.30;540.10;;;9.40;99.90;;;;;;5094341;28;20571;-68
2022/04/16 00:14:41;;;;;;;624.00;591.97;;;9.40;99.90;;;;;;5069307;28;20189;-69
2022/04/16 00:17:07;;;;;;;654.47;620.43;;;9.40;99.90;;;;;;5057124;28;20650;-70
2022/04/16 00:19:33;;;;;;;621.87;590.17;;;9.30;99.90;;;;;;5094708;28;20180;-69
2022/04/16 00:22:00;;;;;;;632.17;599.73;;;9.30;99.90;;;;;;5076148;28;20228;-69
2022/04/16 00:24:28;;;;;;;632.40;599.47;;;9.30;99.90;;;;;;5056603;28;20216;-69
2022/04/16 00:26:53;;;;;;;659.80;625.17;;;9.40;99.90;;;;;;5091123;28;20185;-69
2022/04/16 00:29:19;;;;;;;726.03;686.70;;;9.40;99.90;;;;;;5064730;28;20351;-69
2022/04/16 00:31:47;;;;;;;754.60;711.90;;;9.50;99.90;;;;;;5069690;28;20733;-69
2022/04/16 00:34:14;;;;;;;826.90;777.80;;;9.40;99.90;;;;;;5093305;28;20210;-69
2022/04/16 00:36:41;;;;;;;814.40;766.63;;;9.40;99.90;;;;;;5060004;28;20189;-69
2022/04/16 00:39:07;;;;;;;823.00;774.43;;;9.30;99.90;;;;;;5042005;28;20192;-68
2022/04/16 00:41:33;;;;;;;838.43;788.57;;;9.30;99.90;;;;;;5059616;28;20203;-69
2022/04/16 00:43:58;;;;;;;897.90;842.07;;;9.30;99.90;;;;;;5075927;28;20586;-69
2022/04/16 00:46:24;;;;;;;925.70;866.90;;;9.30;99.90;;;;;;5059370;28;20188;-70
2022/04/16 00:48:50;;;;;;;912.70;855.07;;;9.20;99.90;;;;;;5094004;28;20271;-69
2022/04/16 00:51:16;;;;;;;924.67;866.03;;;9.20;99.90;;;;;;5075175;28;20244;-69
2022/04/16 00:53:41;;;;;;;953.53;891.93;;;9.20;99.90;;;;;;5093964;28;20249;-69
2022/04/16 00:56:10;;;;;;;960.07;897.97;;;9.30;99.90;;;;;;5070229;28;20185;-69
2022/04/16 00:58:38;;;;;;;987.00;922.40;;;9.40;99.90;;;;;;5048195;28;20286;-69
2022/04/16 01:01:04;;;;;;;1012.60;944.90;;;9.40;99.90;;;;;;5059424;28;20196;-69
2022/04/16 01:03:30;;;;;;;1016.20;948.10;;;9.40;99.90;;;;;;5093173;28;20184;-70
2022/04/16 01:05:55;;;;;;;1024.07;955.23;;;9.30;99.90;;;;;;5094079;28;20192;-69
2022/04/16 01:08:22;;;;;;;1043.73;972.13;;;9.10;99.90;;;;;;5093735;28;20188;-69
2022/04/16 01:10:48;;;;;;;1039.33;968.77;;;9.10;99.90;;;;;;5079241;28;20220;-69
2022/04/16 01:13:15;;;;;;;1033.37;963.50;;;8.90;99.90;;;;;;5091845;28;20235;-69
2022/04/16 01:15:41;;;;;;;1014.30;946.40;;;8.90;99.90;;;;;;5061892;28;20553;-69
2022/04/16 01:18:07;;;;;;;1017.83;949.83;;;8.90;99.90;;;;;;5085686;28;20189;-69
2022/04/16 01:20:35;;;;;;;1033.63;963.77;;;9.00;99.90;;;;;;5075028;28;20652;-68
2022/04/16 01:23:02;;;;;;;1046.97;975.73;;;9.00;99.90;;;;;;5058593;28;20191;-69
2022/04/16 01:25:28;;;;;;;1064.53;990.77;;;9.10;99.90;;;;;;5092258;28;20262;-69
2022/04/16 01:27:54;;;;;;;1084.27;999.90;;;9.30;99.90;;;;;;5058773;28;20280;-69
2022/04/16 01:30:22;;;;;;;1080.60;999.90;;;9.10;99.90;;;;;;5093434;28;20275;-68
2022/04/16 01:32:50;;;;;;;1083.00;999.90;;;9.00;99.90;;;;;;5093346;28;20184;-69
2022/04/16 01:35:17;;;;;;;1090.57;999.90;;;8.80;99.90;;;;;;5093322;28;20184;-68
2022/04/16 01:37:43;;;;;;;1081.10;999.90;;;8.70;99.90;;;;;;5091926;28;20645;-69
2022/04/16 01:40:12;;;;;;;1084.87;999.90;;;8.70;99.90;;;;;;5057481;28;20249;-69
2022/04/16 01:42:38;;;;;;;1106.87;999.90;;;8.80;99.90;;;;;;5073473;28;20576;-69
2022/04/16 01:45:05;;;;;;;1112.43;999.90;;;8.90;99.90;;;;;;5074093;28;20211;-68
2022/04/16 01:47:31;;;;;;;1122.13;999.90;;;8.70;99.90;;;;;;5092532;28;20181;-68
2022/04/16 01:49:57;;;;;;;1112.17;999.90;;;8.60;99.90;;;;;;5074829;28;20204;-69
2022/04/16 01:52:23;;;;;;;1109.30;999.90;;;8.60;99.90;;;;;;5074925;28;20212;-68
2022/04/16 01:54:52;;;;;;;1120.67;999.90;;;8.60;99.90;;;;;;5092727;28;20227;-69
2022/04/16 01:57:19;;;;;;;1121.30;999.90;;;8.60;99.90;;;;;;5061083;28;20186;-68
2022/04/16 01:59:46;;;;;;;1124.60;999.90;;;8.60;99.90;;;;;;5049780;28;20197;-69
2022/04/16 02:02:12;;;;;;;1123.73;999.90;;;8.60;99.90;;;;;;5091441;28;20252;-69
2022/04/16 02:04:38;;;;;;;1135.07;999.90;;;8.50;99.90;;;;;;5074813;28;20646;-69
2022/04/16 02:07:03;;;;;;;1134.60;999.90;;;8.50;99.90;;;;;;5092696;28;20195;-69
2022/04/16 02:09:29;;;;;;;1138.40;999.90;;;8.40;99.90;;;;;;5073581;28;20200;-69
2022/04/16 02:11:55;;;;;;;1138.67;999.90;;;8.40;99.90;;;;;;5074343;28;20763;-69
2022/04/16 02:14:23;;;;;;;1143.13;999.90;;;8.40;99.90;;;;;;5074777;28;20188;-69
2022/04/16 02:16:49;;;;;;;1152.33;999.90;;;8.50;99.90;;;;;;5057986;28;20180;-69
2022/04/16 02:19:15;;;;;;;1155.80;999.90;;;8.50;99.90;;;;;;5074510;28;20196;-69
2022/04/16 02:21:44;;;;;;;1158.43;999.90;;;8.50;99.90;;;;;;5047566;28;20219;-69
2022/04/16 02:24:13;;;;;;;1167.03;999.90;;;8.40;99.90;;;;;;5074225;28;20310;-68
2022/04/16 02:26:42;;;;;;;1166.13;999.90;;;8.30;99.90;;;;;;5074518;28;20598;-68
2022/04/16 02:29:08;;;;;;;1168.90;999.90;;;8.20;99.90;;;;;;5074103;28;20189;-68
2022/04/16 02:31:37;;;;;;;1175.67;999.90;;;8.20;99.90;;;;;;5056242;28;20706;-68
2022/04/16 02:34:10;;;;;;;1178.90;999.90;;;8.10;99.90;;;;;;5092367;28;20195;-68
2022/04/16 02:36:36;;;;;;;1179.67;999.90;;;8.10;99.90;;;;;;5088998;28;20655;-68
2022/04/16 02:39:03;;;;;;;1185.30;999.90;;;8.10;99.90;;;;;;5091936;28;20223;-69
2022/04/16 02:41:29;;;;;;;1189.57;999.90;;;8.00;99.90;;;;;;5092701;28;20192;-69
2022/04/16 02:43:55;;;;;;;1190.70;999.90;;;8.00;99.90;;;;;;5091532;28;20200;-68
2022/04/16 02:49:15;;;;;;;1193.57;999.90;;;8.00;99.90;;;;;;5077018;28;20208;-68
2022/04/16 02:51:42;;;;;;;1195.77;999.90;;;8.00;99.90;;;;;;5093371;28;20223;-69
2022/04/16 02:54:07;;;;;;;1195.90;999.90;;;8.00;99.90;;;;;;5076934;28;20185;-68
2022/04/16 02:56:33;;;;;;;1196.97;999.90;;;8.00;99.90;;;;;;5078177;28;20741;-71
2022/04/16 02:58:59;;;;;;;1199.27;999.90;;;8.00;99.90;;;;;;5077832;28;20696;-68
2022/04/16 03:01:24;;;;;;;1198.67;999.90;;;7.90;99.90;;;;;;5071995;28;20583;-68
2022/04/16 03:03:50;;;;;;;1201.40;999.90;;;7.90;99.90;;;;;;5076704;28;20213;-68
2022/04/16 03:06:16;;;;;;;1201.03;999.90;;;7.90;99.90;;;;;;5056539;28;20196;-69
2022/04/16 03:08:42;;;;;;;1201.43;999.90;;;7.80;99.90;;;;;;5077966;28;20262;-68
2022/04/16 03:11:07;;;;;;;1203.77;999.90;;;7.80;99.90;;;;;;5077599;28;20216;-70
2022/04/16 03:13:34;;;;;;;1202.60;999.90;;;7.90;99.90;;;;;;5076334;28;20367;-69
2022/04/16 03:18:45;;;;;;;1200.07;999.90;;;7.90;99.90;;;;;;5096044;28;20196;-69
2022/04/16 03:21:11;;;;;;;1201.33;999.90;;;7.90;99.90;;;;;;5077360;28;20280;-69
2022/04/16 03:23:37;;;;;;;1196.87;999.90;;;7.90;99.90;;;;;;5095641;28;20542;-68
2022/04/16 03:26:03;;;;;;;1201.73;999.90;;;8.00;99.90;;;;;;5059721;28;20181;-68
2022/04/16 03:28:29;;;;;;;1197.50;999.90;;;8.00;99.90;;;;;;5077248;28;20703;-68
2022/04/16 03:30:55;;;;;;;1200.43;999.90;;;7.90;99.90;;;;;;5095439;28;20217;-68
2022/04/16 03:33:21;;;;;;;1195.97;999.90;;;7.90;99.90;;;;;;5065727;28;20193;-69
2022/04/16 03:35:47;;;;;;;1198.33;999.90;;;8.00;99.90;;;;;;5095749;28;20191;-69
2022/04/16 03:38:13;;;;;;;1191.97;999.90;;;8.20;99.90;;;;;;5056639;28;20553;-68
2022/04/16 03:40:40;;;;;;;1194.63;999.90;;;8.10;99.90;;;;;;5063142;28;20212;-69
2022/04/16 03:43:06;;;;;;;1191.70;999.90;;;8.00;99.90;;;;;;5067205;28;20196;-68
2022/04/16 03:45:34;;;;;;;1191.87;999.90;;;7.90;99.90;;;;;;5072881;28;20181;-68
2022/04/16 03:48:02;;;;;;;1194.40;999.90;;;7.90;99.90;;;;;;5082887;28;20181;-68
2022/04/16 03:50:29;;;;;;;1190.03;999.90;;;8.00;99.90;;;;;;5076550;28;20184;-69
2022/04/16 03:52:56;;;;;;;1194.73;999.90;;;7.90;99.90;;;;;;5075665;28;20553;-68
2022/04/16 04:01:02;;;;;;;1193.87;999.90;;;7.60;99.90;;;;;;5093774;28;20258;-69
2022/04/16 04:03:30;;;;;;;1194.97;999.90;;;7.60;99.90;;;;;;5093178;28;20254;-68
2022/04/16 04:06:00;;;;;;;1192.20;999.90;;;7.60;99.90;;;;;;5076888;28;20185;-68
2022/04/16 04:08:26;;;;;;;1193.63;999.90;;;7.60;99.90;;;;;;5062927;28;20197;-68
2022/04/16 04:10:51;;;;;;;1196.47;999.90;;;7.60;99.90;;;;;;5091611;28;20222;-68
2022/04/16 04:13:18;;;;;;;1195.07;999.90;;;7.60;99.90;;;;;;5094502;28;20188;-68
2022/04/16 04:15:44;;;;;;;1197.30;999.90;;;7.60;99.90;;;;;;5094810;28;20185;-68
2022/04/16 04:18:10;;;;;;;1198.50;999.90;;;7.60;99.90;;;;;;5076388;28;20185;-68
2022/04/16 04:20:35;;;;;;;1195.63;999.90;;;7.60;99.90;;;;;;5076631;28;20250;-68
2022/04/16 04:23:02;;;;;;;1196.93;999.90;;;7.60;99.90;;;;;;5043465;28;20223;-68
2022/04/16 04:25:28;;;;;;;1194.63;999.90;;;7.60;99.90;;;;;;5076528;28;20214;-68
2022/04/16 04:27:53;;;;;;;1190.90;999.90;;;7.60;99.90;;;;;;5076389;28;20188;-67
2022/04/16 04:30:22;;;;;;;1197.47;999.90;;;7.50;99.90;;;;;;5092985;28;20189;-68
2022/04/16 04:32:48;;;;;;;1194.10;999.90;;;7.40;99.90;;;;;;5094270;28;20185;-68
2022/04/16 04:35:14;;;;;;;1195.80;999.90;;;7.40;99.90;;;;;;5076526;28;20193;-68
2022/04/16 04:37:40;;;;;;;1197.50;999.90;;;7.50;99.90;;;;;;5075344;28;20195;-68
2022/04/16 04:40:06;;;;;;;1190.43;999.90;;;7.40;99.90;;;;;;5059352;28;20188;-68
2022/04/16 04:42:33;;;;;;;1188.37;999.90;;;7.50;99.90;;;;;;5075048;28;20199;-68
2022/04/16 04:45:09;;;;;;;1191.50;999.90;;;7.50;99.90;;;;;;5076068;28;20242;-67
2022/04/16 04:47:35;;;;;;;1188.07;999.90;;;7.40;99.90;;;;;;5094375;28;20184;-68
2022/04/16 04:50:01;;;;;;;1176.63;999.90;;;7.40;99.90;;;;;;5093498;28;20195;-67
2022/04/16 04:52:27;;;;;;;1169.43;999.90;;;7.40;99.90;;;;;;5094066;28;20211;-67
2022/04/16 04:54:53;;;;;;;1162.87;999.90;;;7.30;99.90;;;;;;5074435;28;20184;-67
2022/04/16 04:57:19;;;;;;;1163.87;999.90;;;7.20;99.90;;;;;;5079659;28;20189;-68
2022/04/16 04:59:45;;;;;;;1163.00;999.90;;;7.20;99.90;;;;;;5058896;28;20607;-67
2022/04/16 05:02:10;;;;;;;1159.97;999.90;;;7.20;99.90;;;;;;5075475;28;20546;-68
2022/04/16 05:04:36;;;;;;;1158.10;999.90;;;7.20;99.90;;;;;;5075984;28;20638;-67
2022/04/16 05:07:03;;;;;;;1152.00;999.90;;;7.30;99.90;;;;;;5093526;28;20184;-67
2022/04/16 05:09:29;;;;;;;1146.33;999.90;;;7.60;99.90;;;;;;5065088;28;20247;-67
2022/04/16 05:11:55;;;;;;;1154.13;999.90;;;7.80;99.90;;;;;;5055972;28;20269;-68
2022/04/16 05:14:21;;;;;;;1156.10;999.90;;;7.90;99.90;;;;;;5077653;28;20185;-67
2022/04/16 05:16:48;;;;;;;1148.50;999.90;;;7.90;99.90;;;;;;5075067;28;20892;-67
2022/04/16 05:19:17;;;;;;;1146.97;999.90;;;7.80;99.90;;;;;;5074123;28;20189;-68
2022/04/16 05:21:43;;;;;;;1116.53;999.90;;;7.90;99.90;;;;;;5093017;28;20184;-68
2022/04/16 05:24:09;;;;;;;1109.03;999.90;;;7.90;99.90;;;;;;5075310;28;20242;-68
2022/04/16 05:26:35;;;;;;;1102.13;999.90;;;7.90;99.90;;;;;;5042034;28;20238;-68
2022/04/16 05:29:02;;;;;;;1093.43;999.90;;;7.80;99.90;;;;;;5069030;28;20189;-67
2022/04/16 05:31:29;;;;;;;1099.83;999.90;;;7.80;99.90;;;;;;5078307;28;20664;-68
2022/04/16 05:36:40;;;;;;;1123.20;999.90;;;7.80;99.90;;;;;;5086432;28;20597;-68
2022/04/16 05:39:06;;;;;;;1135.40;999.90;;;8.10;99.90;;;;;;5055658;28;20272;-68
2022/04/16 05:41:35;;;;;;;1135.63;999.90;;;8.30;99.90;;;;;;5053965;28;20205;-67
2022/04/16 05:44:04;;;;;;;1142.90;999.90;;;8.30;99.90;;;;;;5092724;28;20195;-68
2022/04/16 05:46:30;;;;;;;1145.70;999.90;;;8.20;99.90;;;;;;5078074;28;20185;-68
2022/04/16 05:48:56;;;;;;;1153.23;999.90;;;8.30;99.90;;;;;;5071173;28;20501;-68
2022/04/16 05:51:22;;;;;;;1153.77;999.90;;;8.40;99.90;;;;;;5058213;28;20204;-68
2022/04/16 05:53:49;;;;;;;1154.50;999.90;;;8.50;99.90;;;;;;5062759;28;20209;-68
2022/04/16 05:56:16;;;;;;;1151.80;999.90;;;8.70;99.90;;;;;;5070373;28;20188;-68
2022/04/16 05:58:42;;;;;;;1155.20;999.90;;;8.40;99.90;;;;;;5092952;28;20181;-67
2022/04/16 06:01:09;;;;;;;1166.93;999.90;;;8.10;99.90;;;;;;5092368;28;20256;-67
2022/04/16 06:03:42;;;;;;;1178.20;999.90;;;8.00;99.90;;;;;;5092834;28;20189;-68
2022/04/16 06:06:08;;;;;;;1184.23;999.90;;;7.90;99.90;;;;;;5074699;28;20259;-68
2022/04/16 06:08:35;;;;;;;1189.13;999.90;;;7.90;99.90;;;;;;5049718;28;20237;-68
2022/04/16 06:11:01;;;;;;;1190.60;999.90;;;7.90;99.90;;;;;;5076560;28;20346;-68
2022/04/16 06:13:26;;;;;;;1187.30;999.90;;;8.10;99.90;;;;;;5073675;28;20291;-69
2022/04/16 06:15:52;;;;;;;1189.60;999.90;;;8.20;99.90;;;;;;5038528;28;20193;-68
2022/04/16 06:18:18;;;;;;;1191.83;999.90;;;8.20;99.90;;;;;;5070263;28;20176;-69
2022/04/16 06:20:43;;;;;;;1187.30;999.90;;;8.30;99.90;;;;;;5045983;28;20275;-68
2022/04/16 06:23:09;;;;;;;1186.77;999.90;;;8.60;99.90;;;;;;5082745;28;20267;-68
2022/04/16 06:25:35;;;;;;;1188.13;999.90;;;8.70;99.90;;;;;;5082974;28;20602;-68
2022/04/16 06:28:01;;;;;;;1185.10;999.90;;;8.60;99.90;;;;;;5072085;28;20197;-68
2022/04/16 06:30:27;;;;;;;1187.13;999.90;;;8.60;99.90;;;;;;5074251;28;20574;-68
2022/04/16 06:32:53;;;;;;;1189.23;999.90;;;8.60;99.90;;;;;;5074548;28;20271;-69
2022/04/16 06:35:19;;;;;;;1193.97;999.90;;;8.90;99.90;;;;;;5074184;28;20216;-70
2022/04/16 06:37:44;;;;;;;1190.97;999.90;;;8.80;99.90;;;;;;5092357;28;20720;-72
2022/04/16 06:40:11;;;;;;;1193.07;999.90;;;8.80;99.90;;;;;;5092574;28;20227;-70
2022/04/16 06:42:38;;;;;;;1203.67;999.90;;;8.80;99.90;;;;;;5073573;28;20192;-69
2022/04/16 06:45:06;;;;;;;1192.60;999.90;;;8.70;99.90;;;;;;5070983;28;20618;-69
2022/04/16 06:47:32;;;;;;;1183.17;999.90;;;8.80;99.90;;;;;;5074491;28;20220;-68
2022/04/16 06:49:58;;;;;;;1182.47;999.90;;;9.00;99.90;;;;;;5091119;28;20216;-71
2022/04/16 06:52:24;;;;;;;1163.87;999.90;;;9.20;99.90;;;;;;5057409;28;20217;-69
2022/04/16 06:54:50;;;;;;;1171.37;999.90;;;9.10;99.90;;;;;;5092283;28;20180;-71
2022/04/16 06:57:16;;;;;;;1178.40;999.90;;;9.20;99.90;;;;;;5092078;28;20184;-69
2022/04/16 06:59:42;;;;;;;1173.00;999.90;;;9.30;99.90;;;;;;5073529;28;20197;-69
2022/04/16 07:02:09;;;;;;;1165.07;999.90;;;9.30;99.90;;;;;;5050311;28;20194;-75
2022/04/16 07:04:36;;;;;;;1157.17;999.90;;;9.10;99.90;;;;;;5082006;28;20189;-72
2022/04/16 07:07:02;;;;;;;1138.83;999.90;;;9.10;99.90;;;;;;5091784;28;20185;-72
2022/04/16 07:09:28;;;;;;;1145.87;999.90;;;9.20;99.90;;;;;;5072793;28;20568;-72
2022/04/16 07:11:54;;;;;;;1128.57;999.90;;;9.30;99.90;;;;;;5073355;28;20212;-71
2022/04/16 07:14:23;;;;;;;1109.10;999.90;;;9.30;99.90;;;;;;5091872;28;20189;-75
2022/04/16 07:16:48;;;;;;;1115.30;999.90;;;9.30;99.90;;;;;;5092072;28;20196;-70
2022/04/16 07:19:14;;;;;;;1102.90;999.90;;;9.50;99.90;;;;;;5056092;28;20549;-70
2022/04/16 07:21:40;;;;;;;1096.10;999.90;;;9.60;99.90;;;;;;5069327;28;20235;-70
2022/04/16 07:24:06;;;;;;;1078.53;999.13;;;9.70;99.90;;;;;;5083112;28;20177;-71
2022/04/16 07:26:32;;;;;;;1047.33;975.33;;;9.70;99.90;;;;;;5081750;28;20192;-70
2022/04/16 07:28:57;;;;;;;1053.33;980.40;;;9.80;99.90;;;;;;5054248;28;20191;-75
2022/04/16 07:31:23;;;;;;;1021.47;952.57;;;10.00;99.90;;;;;;5073162;28;20236;-73
2022/04/16 07:33:49;;;;;;;903.40;845.37;;;10.50;99.90;;;;;;5059366;28;20550;-71
2022/04/16 07:36:14;;;;;;;640.43;601.47;;;11.60;99.90;;;;;;5059569;28;20205;-70
2022/04/16 07:38:43;;;;;;;522.00;491.10;;;12.80;99.90;;;;;;5058632;28;21040;-69
2022/04/16 07:41:09;;;;;;;415.92;393.52;;;13.40;99.90;;;;;;5077075;28;20556;-77
2022/04/16 07:43:35;;;;;;;508.38;481.58;;;14.10;99.90;;;;;;5066667;28;20185;-77
2022/04/16 07:46:00;;;;;;;170.48;161.00;;;15.30;99.90;;;;;;5088430;28;20185;-73
2022/04/16 07:48:26;;;;;;;154.00;145.73;;;16.10;99.90;;;;;;5054599;28;20192;-72
2022/04/16 07:50:52;;;;;;;155.30;147.85;;;16.60;99.90;;;;;;5059600;28;20208;-70
2022/04/16 07:53:17;;;;;;;242.57;231.82;;;16.50;99.90;;;;;;5044769;28;20272;-69
2022/04/16 07:55:43;;;;;;;257.60;245.32;;;16.70;99.90;;;;;;5062376;28;20587;-69
2022/04/16 07:58:08;;;;;;;251.15;238.77;;;16.70;99.90;;;;;;5059673;28;20181;-69
2022/04/16 08:00:34;;;;;;;140.05;132.93;;;16.30;99.90;;;;;;5060824;28;20768;-71
2022/04/16 08:03:00;;;;;;;131.55;124.43;;;16.10;99.90;;;;;;5092652;28;20568;-71
2022/04/16 08:05:25;;;;;;;124.90;118.95;;;17.00;99.90;;;;;;5054741;28;20188;-71
2022/04/16 08:07:51;;;;;;;141.63;134.93;;;17.40;99.90;;;;;;5074557;28;20216;-71
2022/04/16 08:10:17;;;;;;;127.35;120.68;;;17.70;99.90;;;;;;5080772;28;20185;-71
2022/04/16 08:12:42;;;;;;;115.45;109.72;;;17.90;99.90;;;;;;5052484;28;20342;-71
2022/04/16 08:15:10;;;;;;;99.40;94.35;;;18.70;99.90;;;;;;5093072;28;20189;-72
2022/04/16 08:17:37;;;;;;;87.93;83.13;;;19.30;99.90;;;;;;5087706;28;20177;-71
2022/04/16 08:20:05;;;;;;;97.93;93.05;;;19.80;99.90;;;;;;5072581;28;20225;-71
2022/04/16 08:22:34;;;;;;;73.60;69.70;;;18.90;99.90;;;;;;5068978;28;20192;-71
2022/04/16 08:27:45;;;;;;;104.22;99.28;;;19.30;99.90;;;;;;5070374;28;20193;-74
2022/04/16 08:30:12;;;;;;;86.68;82.38;;;19.30;99.90;;;;;;5075468;28;20275;-73
2022/04/16 08:32:41;;;;;;;81.85;77.97;;;18.80;99.90;;;;;;5069976;28;20216;-72
2022/04/16 08:35:08;;;;;;;83.70;79.55;;;19.50;99.90;;;;;;5070361;28;20280;-76
2022/04/16 08:37:34;;;;;;;76.97;73.05;;;19.50;99.90;;;;;;5087607;28;20189;-71
2022/04/16 08:40:00;;;;;;;74.55;70.55;;;19.00;99.90;;;;;;5070434;28;20189;-71
2022/04/16 08:42:26;;;;;;;84.20;80.25;;;19.30;99.90;;;;;;5062431;28;20189;-71
2022/04/16 08:44:52;;;;;;;69.38;65.78;;;19.70;99.90;;;;;;5057412;28;20547;-73
2022/04/16 08:47:18;;;;;;;75.22;71.30;;;20.40;99.90;;;;;;5065135;28;20181;-73
2022/04/16 08:49:44;;;;;;;75.68;71.93;;;20.90;99.90;;;;;;5069338;28;20213;-73
2022/04/16 08:52:11;;;;;;;76.55;72.53;;;20.90;99.90;;;;;;5073984;28;20231;-74
2022/04/16 08:54:38;;;;;;;68.47;64.85;;;20.80;99.90;;;;;;5061890;28;20198;-77
2022/04/16 08:57:05;;;;;;;53.95;51.17;;;19.40;99.90;;;;;;5056506;28;20619;-69
2022/04/16 08:59:31;;;;;;;56.08;53.03;;;18.90;99.90;;;;;;5083077;28;20198;-70
2022/04/16 09:01:58;;;;;;;72.68;69.10;;;18.50;99.90;;;;;;5043997;28;20271;-73
2022/04/16 09:04:27;;;;;;;71.55;68.20;;;17.50;99.90;;;;;;5091426;28;20188;-75
2022/04/16 09:07:01;;;;;;;101.97;97.50;;;16.00;99.90;;;;;;5087227;28;20181;-79
2022/04/16 09:09:27;;;;;;;136.27;130.73;;;15.80;99.90;;;;;;5070293;28;20209;-75
2022/04/16 09:11:54;;;;;;;230.65;221.48;;;15.90;99.90;;;;;;5057105;28;20666;-71
2022/04/16 09:14:20;;;;;;;329.17;316.17;;;16.00;99.90;;;;;;5050424;28;20223;-69
2022/04/16 09:16:45;;;;;;;446.85;428.20;;;15.90;99.90;;;;;;5075177;28;20622;-74
2022/04/16 09:19:12;;;;;;;569.08;542.60;;;15.90;99.90;;;;;;5092919;28;20334;-70
2022/04/16 09:21:39;;;;;;;608.75;579.85;;;15.70;99.90;;;;;;5059588;28;20208;-69
2022/04/16 09:24:04;;;;;;;595.22;566.95;;;15.60;99.90;;;;;;5056934;28;20191;-70
2022/04/16 09:26:31;;;;;;;580.60;553.55;;;15.60;99.90;;;;;;5076478;28;20181;-69
2022/04/16 09:29:04;;;;;;;689.75;654.08;;;15.40;99.90;;;;;;5058593;28;20184;-70
2022/04/16 09:31:34;;;;;;;674.38;640.47;;;15.30;99.90;;;;;;5089513;28;20239;-70
2022/04/16 09:34:00;;;;;;;711.92;675.15;;;15.20;99.90;;;;;;5092318;28;20196;-71
2022/04/16 09:36:27;;;;;;;712.95;675.20;;;15.20;99.90;;;;;;5074767;28;20192;-71
2022/04/16 09:39:02;;;;;;;716.78;679.20;;;15.40;99.90;;;;;;5058624;28;20185;-71
2022/04/16 09:41:32;;;;;;;680.45;646.42;;;15.60;99.90;;;;;;5089862;28;20196;-74
2022/04/16 09:43:58;;;;;;;654.08;622.05;;;15.90;99.90;;;;;;5074000;28;20192;-70
2022/04/16 09:46:27;;;;;;;696.83;661.67;;;15.70;99.90;;;;;;5057960;28;20192;-72
2022/04/16 09:49:03;;;;;;;697.50;661.95;;;15.40;99.90;;;;;;5073323;28;20181;-71
2022/04/16 09:51:34;;;;;;;695.42;659.90;;;15.40;99.90;;;;;;5068806;28;20209;-72
2022/04/16 09:54:04;;;;;;;699.67;663.78;;;15.50;99.90;;;;;;5082955;28;20204;-72
2022/04/16 09:56:33;;;;;;;727.72;688.83;;;15.40;99.90;;;;;;5092336;28;20179;-67
2022/04/16 09:59:02;;;;;;;704.25;666.90;;;15.50;99.90;;;;;;5074264;28;20192;-69
2022/04/16 10:01:28;;;;;;;762.53;720.63;;;15.20;99.90;;;;;;5091891;28;20591;-66
2022/04/16 10:03:55;;;;;;;749.92;709.25;;;15.40;99.90;;;;;;5057418;28;20176;-66
2022/04/16 10:06:21;;;;;;;703.53;667.22;;;15.80;99.90;;;;;;5090939;28;20553;-65
2022/04/16 10:08:49;;;;;;;796.45;749.55;;;15.90;99.90;;;;;;5091988;28;20188;-67
2022/04/16 10:11:21;;;;;;;662.08;628.20;;;16.00;99.90;;;;;;5074582;28;20284;-69
2022/04/16 10:13:58;;;;;;;674.33;640.72;;;16.00;99.90;;;;;;5074744;28;20188;-71
2022/04/16 10:16:36;;;;;;;669.25;635.97;;;15.80;99.90;;;;;;5091753;28;20645;-67
2022/04/16 10:19:02;;;;;;;695.20;659.70;;;15.50;99.90;;;;;;5075813;28;20268;-67
2022/04/16 10:21:33;;;;;;;746.10;702.17;;;15.50;99.90;;;;;;5092107;28;20268;-68
2022/04/16 10:24:02;;;;;;;708.63;671.92;;;15.70;99.90;;;;;;5074108;28;20184;-67
2022/04/16 10:26:43;;;;;;;689.67;654.28;;;15.90;99.90;;;;;;5041048;28;20196;-69
2022/04/16 10:29:09;;;;;;;696.15;660.88;;;15.50;99.90;;;;;;5091202;28;20268;-67
2022/04/16 10:31:37;;;;;;;735.03;695.10;;;15.80;99.90;;;;;;5074074;28;20204;-69
2022/04/16 10:34:05;;;;;;;691.42;656.10;;;16.10;99.90;;;;;;5092110;28;20192;-70
2022/04/16 10:36:39;;;;;;;716.72;678.97;;;16.20;99.90;;;;;;5085390;28;20799;-69
2022/04/16 10:39:27;;;;;;;627.00;596.83;;;16.30;99.90;;;;;;5066883;28;20183;-67
2022/04/16 10:41:56;;;;;;;649.70;618.08;;;16.10;99.90;;;;;;5067343;28;20634;-67
2022/04/16 10:44:22;;;;;;;648.45;617.13;;;15.90;99.90;;;;;;5078212;28;20665;-67
2022/04/16 10:46:50;;;;;;;650.45;618.95;;;15.70;99.90;;;;;;5031302;28;20668;-68
2022/04/16 10:49:17;;;;;;;694.70;658.58;;;15.80;99.90;;;;;;5077537;28;20173;-69
2022/04/16 10:51:43;;;;;;;666.58;633.40;;;16.10;99.90;;;;;;5069029;28;20201;-71
2022/04/16 10:54:27;;;;;;;607.30;578.97;;;16.30;99.90;;;;;;5069144;28;20272;-78
2022/04/16 10:56:54;;;;;;;630.08;599.83;;;16.40;99.90;;;;;;5091269;28;20177;-77
2022/04/16 10:59:36;;;;;;;613.08;583.63;;;16.10;99.90;;;;;;5078577;28;20196;-73
2022/04/16 11:02:02;;;;;;;653.92;621.97;;;15.50;99.90;;;;;;5058647;28;20633;-76
2022/04/16 11:04:27;;;;;;;650.40;618.63;;;15.50;99.90;;;;;;5057788;28;20276;-74
2022/04/16 11:06:57;;;;;;;667.80;634.55;;;15.50;99.90;;;;;;5073281;28;21368;-73
2022/04/16 11:09:23;;;;;;;677.65;643.92;;;15.70;99.90;;;;;;5073662;28;20507;-77
2022/04/16 11:11:52;;;;;;;660.95;628.45;;;15.70;99.90;;;;;;5073800;28;20269;-75
2022/04/16 11:14:18;;;;;;;672.92;639.75;;;15.80;99.90;;;;;;5065168;28;20189;-72
2022/04/16 11:16:45;;;;;;;679.97;646.22;;;15.90;99.90;;;;;;5075651;28;20177;-77
2022/04/16 11:19:15;;;;;;;670.47;637.67;;;16.10;99.90;;;;;;5095203;28;20189;-73
2022/04/16 11:21:42;;;;;;;654.08;622.42;;;16.00;99.90;;;;;;5060251;28;20215;-76
2022/04/16 11:24:09;;;;;;;667.05;634.38;;;16.00;99.90;;;;;;5095991;28;20579;-77
2022/04/16 11:34:55;;;;;;;646.90;615.55;;;16.40;99.90;;;;;;5079492;28;20226;-68
2022/04/16 11:37:21;;;;;;;666.83;633.42;;;16.60;99.90;;;;;;5076482;28;20652;-66
2022/04/16 11:39:59;;;;;;;606.30;577.72;;;16.80;99.90;;;;;;5095542;28;20185;-66
2022/04/16 11:42:26;;;;;;;633.05;602.70;;;16.40;99.90;;;;;;5077102;28;20176;-67
2022/04/16 11:44:52;;;;;;;647.10;616.00;;;16.00;99.90;;;;;;5076427;28;20192;-69
2022/04/16 11:47:23;;;;;;;623.08;593.25;;;16.10;99.90;;;;;;5076863;28;20655;-68
2022/04/16 11:49:53;;;;;;;645.38;614.08;;;16.30;99.90;;;;;;5060701;28;20181;-70
2022/04/16 11:52:27;;;;;;;653.25;621.55;;;16.20;99.90;;;;;;5074593;28;20234;-70
2022/04/16 11:55:19;;;;;;;710.72;674.53;;;16.10;99.90;;;;;;5095281;28;20185;-71
2022/04/16 11:57:53;;;;;;;685.85;651.45;;;16.30;99.90;;;;;;5040742;28;20201;-71
2022/04/16 12:00:20;;;;;;;714.38;676.30;;;16.60;99.90;;;;;;5070372;28;20204;-70
2022/04/16 12:02:49;;;;;;;663.45;630.92;;;17.00;99.90;;;;;;5072265;28;20188;-74
2022/04/16 12:05:17;;;;;;;662.55;629.92;;;17.00;99.90;;;;;;5077795;28;20184;-75
2022/04/16 12:07:48;;;;;;;644.22;612.85;;;17.00;99.90;;;;;;5094908;28;20591;-72
2022/04/16 12:10:14;;;;;;;662.35;629.75;;;16.80;99.90;;;;;;5094191;28;20189;-71
2022/04/16 12:12:48;;;;;;;711.15;674.17;;;16.30;99.90;;;;;;5076760;28;20307;-69
2022/04/16 12:15:24;;;;;;;670.65;637.20;;;16.50;99.90;;;;;;5094957;28;20211;-68
2022/04/16 12:17:51;;;;;;;684.88;650.75;;;16.60;99.90;;;;;;5074317;28;20227;-72
2022/04/16 12:20:20;;;;;;;690.83;656.38;;;16.90;99.90;;;;;;5057869;28;20198;-71
2022/04/16 12:22:49;;;;;;;658.30;625.95;;;17.20;99.90;;;;;;5080916;28;20513;-68
2022/04/16 12:25:20;;;;;;;661.63;629.05;;;17.20;99.90;;;;;;5073029;28;20174;-64
2022/04/16 12:27:54;;;;;;;677.95;644.33;;;16.90;99.90;;;;;;5075394;28;20172;-68
2022/04/16 12:30:25;;;;;;;644.20;612.33;;;17.00;99.90;;;;;;5056019;28;20173;-68
2022/04/16 12:33:00;;;;;;;651.20;619.70;;;17.30;99.90;;;;;;5088400;28;20650;-68
2022/04/16 12:35:28;;;;;;;656.40;624.30;;;17.40;99.90;;;;;;5072122;28;20184;-70